createdAt,value
2018-09-19T00:01:02.226Z,99.90
2018-09-19T00:03:30.458Z,99.90
2018-09-19T00:05:59.163Z,99.90
2018-09-19T00:08:27.326Z,99.90
2018-09-19T00:10:55.637Z,99.90
2018-09-19T00:13:23.791Z,99.90
2018-09-19T00:15:52.194Z,99.90
2018-09-19T00:18:20.649Z,99.90
2018-09-19T00:20:49.195Z,99.90
2018-09-19T00:23:17.313Z,99.90
2018-09-19T00:25:45.533Z,99.90
2018-09-19T00:28:13.870Z,99.90
2018-09-19T00:30:42.172Z,99.90
2018-09-19T00:33:10.451Z,99.90
2018-09-19T00:35:38.595Z,99.90
2018-09-19T00:38:07.074Z,99.90
2018-09-19T00:40:35.240Z,99.90
2018-09-19T00:43:03.476Z,99.90
2018-09-19T00:45:31.592Z,99.90
2018-09-19T00:47:59.833Z,99.90
2018-09-19T00:50:27.926Z,99.90
2018-09-19T00:52:56.422Z,99.90
2018-09-19T00:55:24.649Z,99.90
2018-09-19T00:57:52.820Z,99.90
2018-09-19T01:00:21.193Z,99.90
2018-09-19T01:02:49.306Z,99.90
2018-09-19T01:05:17.659Z,99.90
2018-09-19T01:07:46.401Z,99.90
2018-09-19T01:10:14.580Z,99.90
2018-09-19T01:12:42.759Z,99.90
2018-09-19T01:15:10.952Z,99.90
2018-09-19T01:17:39.213Z,99.90
2018-09-19T01:20:07.354Z,99.90
2018-09-19T01:23:06.595Z,99.90
2018-09-19T01:25:34.799Z,99.90
2018-09-19T01:28:03.228Z,99.90
2018-09-19T01:30:31.446Z,99.90
2018-09-19T01:32:59.659Z,99.90
2018-09-19T01:35:28.067Z,99.90
2018-09-19T01:37:56.295Z,99.90
2018-09-19T01:40:24.409Z,99.90
2018-09-19T01:42:52.934Z,99.90
2018-09-19T01:45:21.066Z,99.90
2018-09-19T01:47:49.419Z,99.90
2018-09-19T01:50:18.085Z,99.90
2018-09-19T01:52:46.195Z,99.90
2018-09-19T01:55:15.450Z,99.90
2018-09-19T01:57:43.586Z,99.90
2018-09-19T02:00:11.749Z,99.90
2018-09-19T02:02:39.963Z,99.90
2018-09-19T02:05:08.445Z,99.90
2018-09-19T02:07:36.906Z,99.90
2018-09-19T02:10:05.054Z,99.90
2018-09-19T02:12:33.769Z,99.90
2018-09-19T02:15:01.934Z,99.90
2018-09-19T02:17:30.130Z,99.90
2018-09-19T02:19:58.278Z,99.90
2018-09-19T02:22:26.425Z,99.90
2018-09-19T02:24:55.049Z,99.90
2018-09-19T02:27:23.192Z,99.90
2018-09-19T02:29:51.466Z,99.90
2018-09-19T02:32:19.639Z,99.90
2018-09-19T02:34:47.845Z,99.90
2018-09-19T02:37:15.981Z,99.90
2018-09-19T02:39:44.428Z,99.90
2018-09-19T02:42:12.554Z,99.90
2018-09-19T02:44:40.769Z,99.90
2018-09-19T02:47:08.948Z,99.90
2018-09-19T02:49:37.103Z,99.90
2018-09-19T02:52:05.246Z,99.90
2018-09-19T02:54:33.433Z,99.90
2018-09-19T02:57:01.930Z,99.90
2018-09-19T02:59:30.075Z,99.90
2018-09-19T03:01:58.448Z,99.90
2018-09-19T03:04:26.657Z,99.90
2018-09-19T03:06:54.803Z,99.90
2018-09-19T03:09:22.970Z,99.90
2018-09-19T03:11:51.225Z,99.90
2018-09-19T03:14:19.318Z,99.90
2018-09-19T03:16:47.542Z,99.90
2018-09-19T03:19:16.609Z,99.90
2018-09-19T03:21:44.846Z,99.90
2018-09-19T03:24:12.949Z,99.90
2018-09-19T03:26:42.265Z,99.90
2018-09-19T03:29:10.519Z,99.90
2018-09-19T03:31:38.712Z,99.90
2018-09-19T03:34:07.197Z,99.90
2018-09-19T03:36:35.391Z,99.90
2018-09-19T03:39:04.116Z,99.90
2018-09-19T03:41:32.537Z,99.90
2018-09-19T03:44:00.751Z,99.90
2018-09-19T03:46:28.861Z,99.90
2018-09-19T03:48:57.100Z,99.90
2018-09-19T03:51:25.251Z,99.90
2018-09-19T03:53:53.429Z,99.90
2018-09-19T03:56:21.555Z,99.90
2018-09-19T03:58:49.766Z,99.90
2018-09-19T04:01:17.958Z,99.90
2018-09-19T04:03:46.081Z,99.90
2018-09-19T04:06:14.427Z,99.90
2018-09-19T04:08:47.471Z,99.90
2018-09-19T04:11:15.627Z,99.90
2018-09-19T04:13:43.917Z,99.90
2018-09-19T04:16:12.134Z,99.90
2018-09-19T04:18:40.264Z,99.90
2018-09-19T04:21:08.521Z,99.90
2018-09-19T04:23:36.733Z,99.90
2018-09-19T04:26:05.160Z,99.90
2018-09-19T04:28:33.265Z,99.90
2018-09-19T04:31:01.645Z,99.90
2018-09-19T04:33:30.149Z,99.90
2018-09-19T04:35:58.305Z,99.90
2018-09-19T04:38:26.510Z,99.90
2018-09-19T04:40:54.966Z,99.90
2018-09-19T04:43:23.208Z,99.90
2018-09-19T04:45:51.305Z,99.90
2018-09-19T04:48:19.481Z,99.90
2018-09-19T04:50:47.760Z,99.90
2018-09-19T04:53:15.966Z,99.90
2018-09-19T04:55:44.115Z,99.90
2018-09-19T04:58:12.326Z,99.90
2018-09-19T05:00:40.467Z,99.90
2018-09-19T05:03:08.714Z,99.90
2018-09-19T05:05:36.973Z,99.90
2018-09-19T05:08:05.566Z,99.90
2018-09-19T05:10:34.235Z,99.90
2018-09-19T05:13:02.348Z,99.90
2018-09-19T05:15:30.543Z,99.90
2018-09-19T05:17:58.910Z,99.90
2018-09-19T05:20:27.119Z,99.90
2018-09-19T05:22:55.251Z,99.90
2018-09-19T05:25:23.633Z,99.90
2018-09-19T05:27:51.905Z,99.90
2018-09-19T05:30:19.995Z,99.90
2018-09-19T05:32:48.498Z,99.90
2018-09-19T05:35:16.658Z,99.90
2018-09-19T05:37:45.357Z,99.90
2018-09-19T05:40:14.097Z,99.90
2018-09-19T05:42:42.254Z,99.90
2018-09-19T05:45:10.437Z,99.90
2018-09-19T05:47:38.559Z,99.90
2018-09-19T05:50:06.717Z,99.90
2018-09-19T05:52:34.897Z,99.90
2018-09-19T05:55:03.077Z,99.90
2018-09-19T05:57:31.159Z,99.90
2018-09-19T05:59:59.310Z,99.90
2018-09-19T06:02:27.825Z,99.90
2018-09-19T06:04:56.005Z,99.90
2018-09-19T06:07:24.818Z,99.90
2018-09-19T06:09:52.941Z,99.90
2018-09-19T06:13:24.291Z,99.90
2018-09-19T06:15:52.530Z,99.90
2018-09-19T06:18:20.661Z,99.90
2018-09-19T06:20:48.945Z,99.90
2018-09-19T06:23:17.073Z,99.90
2018-09-19T06:25:45.347Z,99.90
2018-09-19T06:28:13.583Z,99.90
2018-09-19T06:30:41.703Z,99.90
2018-09-19T06:33:10.019Z,99.90
2018-09-19T06:35:38.036Z,99.90
2018-09-19T06:38:06.913Z,99.90
2018-09-19T06:40:35.121Z,99.90
2018-09-19T06:43:03.309Z,99.90
2018-09-19T06:45:32.115Z,99.90
2018-09-19T06:48:00.610Z,99.90
2018-09-19T06:50:28.730Z,99.90
2018-09-19T06:52:57.784Z,99.90
2018-09-19T06:55:25.943Z,99.90
2018-09-19T06:57:54.086Z,99.90
2018-09-19T07:00:22.329Z,99.90
2018-09-19T07:02:50.437Z,99.90
2018-09-19T07:05:18.676Z,99.90
2018-09-19T07:07:46.905Z,99.90
2018-09-19T07:10:19.697Z,99.90
2018-09-19T07:12:48.491Z,99.90
2018-09-19T07:15:16.786Z,99.90
2018-09-19T07:17:44.921Z,99.90
2018-09-19T07:20:13.522Z,99.90
2018-09-19T07:22:41.658Z,99.90
2018-09-19T07:25:10.824Z,99.90
2018-09-19T07:27:39.022Z,99.90
2018-09-19T07:30:07.427Z,99.90
2018-09-19T07:32:35.594Z,99.90
2018-09-19T07:35:04.668Z,99.90
2018-09-19T07:37:33.091Z,99.90
2018-09-19T07:40:01.248Z,99.90
2018-09-19T07:42:29.674Z,99.90
2018-09-19T07:44:57.818Z,99.90
2018-09-19T07:47:26.002Z,99.90
2018-09-19T07:49:54.204Z,99.90
2018-09-19T07:52:22.853Z,99.90
2018-09-19T07:54:51.057Z,99.90
2018-09-19T07:57:19.552Z,99.90
2018-09-19T07:59:47.729Z,99.90
2018-09-19T08:02:16.360Z,99.90
2018-09-19T08:04:44.485Z,99.90
2018-09-19T08:07:12.793Z,99.90
2018-09-19T08:09:41.029Z,99.90
2018-09-19T08:12:09.137Z,99.90
2018-09-19T08:14:37.738Z,99.90
2018-09-19T08:17:06.256Z,99.90
2018-09-19T08:19:34.382Z,99.90
2018-09-19T08:22:02.577Z,99.90
2018-09-19T08:24:30.851Z,99.90
2018-09-19T08:26:59.105Z,99.90
2018-09-19T08:29:27.906Z,99.90
2018-09-19T08:31:56.149Z,99.90
2018-09-19T08:34:24.245Z,99.90
2018-09-19T08:36:52.890Z,99.90
2018-09-19T08:39:21.257Z,99.90
2018-09-19T08:41:49.385Z,99.90
2018-09-19T08:44:17.783Z,99.90
2018-09-19T08:46:46.012Z,99.90
2018-09-19T08:49:15.294Z,99.90
2018-09-19T08:51:43.434Z,99.90
2018-09-19T08:54:11.746Z,99.90
2018-09-19T08:56:39.878Z,99.90
2018-09-19T08:59:08.117Z,99.90
2018-09-19T09:01:36.444Z,99.90
2018-09-19T09:04:04.612Z,99.90
2018-09-19T09:06:32.849Z,99.90
2018-09-19T09:09:01.088Z,99.90
2018-09-19T09:11:29.357Z,99.90
2018-09-19T09:13:57.530Z,99.90
2018-09-19T09:16:25.890Z,99.90
2018-09-19T09:18:54.278Z,99.90
2018-09-19T09:21:22.874Z,98.90
2018-09-19T09:23:51.133Z,97.50
2018-09-19T09:26:19.333Z,97.00
2018-09-19T09:28:47.985Z,98.10
2018-09-19T09:31:16.232Z,98.00
2018-09-19T09:33:45.271Z,96.90
2018-09-19T09:36:13.461Z,96.80
2018-09-19T09:38:41.598Z,95.70
2018-09-19T09:41:10.688Z,95.10
2018-09-19T09:43:39.306Z,94.70
2018-09-19T09:46:07.380Z,94.50
2018-09-19T09:48:35.622Z,94.20
2018-09-19T09:51:03.862Z,92.40
2018-09-19T09:56:00.250Z,91.30
2018-09-19T09:58:28.326Z,91.00
2018-09-19T10:00:56.949Z,91.60
2018-09-19T10:03:25.218Z,90.60
2018-09-19T10:05:53.409Z,89.50
2018-09-19T10:08:21.541Z,90.20
2018-09-19T10:10:50.039Z,88.60
2018-09-19T10:13:18.237Z,90.10
2018-09-19T10:15:46.387Z,90.20
2018-09-19T10:18:14.643Z,85.80
2018-09-19T10:20:43.230Z,88.60
2018-09-19T10:23:11.486Z,86.90
2018-09-19T10:25:39.645Z,85.20
2018-09-19T10:28:07.775Z,85.50
2018-09-19T10:30:36.699Z,85.70
2018-09-19T10:33:05.146Z,84.30
2018-09-19T10:35:33.926Z,83.60
2018-09-19T10:38:02.562Z,82.30
2018-09-19T10:40:31.618Z,88.00
2018-09-19T10:43:02.114Z,83.00
2018-09-19T10:45:30.555Z,80.90
2018-09-19T10:47:58.762Z,81.80
2018-09-19T10:50:26.929Z,82.30
2018-09-19T10:52:55.339Z,86.20
2018-09-19T10:55:23.581Z,87.30
2018-09-19T10:57:51.688Z,86.90
2018-09-19T11:00:19.911Z,84.60
2018-09-19T11:02:48.086Z,84.40
2018-09-19T11:05:17.201Z,88.40
2018-09-19T11:07:45.811Z,85.60
2018-09-19T11:10:13.945Z,85.60
2018-09-19T11:12:42.153Z,86.60
2018-09-19T11:15:10.699Z,82.50
2018-09-19T11:17:39.352Z,84.60
2018-09-19T11:20:08.180Z,82.90
2018-09-19T11:22:36.794Z,84.60
2018-09-19T11:25:05.397Z,81.00
2018-09-19T11:27:33.613Z,79.00
2018-09-19T11:30:01.796Z,77.60
2018-09-19T11:32:29.955Z,78.20
2018-09-19T11:34:59.288Z,80.60
2018-09-19T11:37:27.835Z,79.70
2018-09-19T11:39:56.100Z,80.20
2018-09-19T11:42:24.282Z,78.10
2018-09-19T11:44:53.025Z,80.40
2018-09-19T11:47:21.122Z,82.40
2018-09-19T11:49:49.317Z,82.40
2018-09-19T11:52:17.944Z,81.60
2018-09-19T11:54:46.714Z,84.20
2018-09-19T11:57:15.311Z,86.30
2018-09-19T11:59:43.750Z,86.10
2018-09-19T12:02:11.958Z,86.40
2018-09-19T12:04:40.286Z,84.30
2018-09-19T12:07:08.723Z,83.00
2018-09-19T12:09:37.511Z,81.70
2018-09-19T12:12:06.118Z,82.00
2018-09-19T12:14:34.382Z,82.70
2018-09-19T12:17:02.673Z,81.50
2018-09-19T12:19:30.963Z,83.80
2018-09-19T12:22:00.957Z,83.00
2018-09-19T12:24:29.078Z,82.70
2018-09-19T12:26:57.386Z,82.30
2018-09-19T12:29:25.540Z,83.40
2018-09-19T12:31:53.762Z,80.20
2018-09-19T12:34:21.885Z,79.00
2018-09-19T12:36:50.397Z,79.00
2018-09-19T12:39:18.577Z,78.90
2018-09-19T12:41:47.638Z,80.60
2018-09-19T12:44:15.842Z,83.10
2018-09-19T12:46:44.007Z,84.50
2018-09-19T12:49:12.260Z,84.40
2018-09-19T12:51:40.330Z,84.50
2018-09-19T12:54:09.237Z,84.30
2018-09-19T12:56:37.499Z,83.30
2018-09-19T12:59:05.770Z,83.70
2018-09-19T13:01:34.450Z,83.00
2018-09-19T13:04:02.524Z,83.90
2018-09-19T13:06:31.498Z,84.00
2018-09-19T13:08:59.613Z,83.00
2018-09-19T13:11:27.783Z,83.60
2018-09-19T13:13:56.606Z,84.00
2018-09-19T13:16:24.761Z,83.50
2018-09-19T13:18:52.930Z,84.00
2018-09-19T13:21:21.330Z,83.50
2018-09-19T13:23:49.476Z,86.10
2018-09-19T13:26:17.701Z,82.50
2018-09-19T13:28:46.077Z,82.00
2018-09-19T13:31:14.234Z,83.00
2018-09-19T13:33:42.408Z,83.60
2018-09-19T13:36:11.085Z,83.50
2018-09-19T13:38:39.322Z,82.50
2018-09-19T13:41:08.369Z,82.80
2018-09-19T13:43:36.525Z,84.20
2018-09-19T13:46:04.817Z,84.10
2018-09-19T13:48:33.225Z,84.10
2018-09-19T13:51:06.881Z,85.00
2018-09-19T13:53:35.066Z,84.10
2018-09-19T13:56:03.345Z,85.40
2018-09-19T13:58:32.501Z,85.10
2018-09-19T14:01:00.941Z,85.00
2018-09-19T14:03:29.095Z,85.00
2018-09-19T14:05:57.311Z,84.50
2018-09-19T14:08:25.454Z,84.20
2018-09-19T14:10:53.625Z,83.80
2018-09-19T14:13:22.502Z,83.90
2018-09-19T14:15:50.722Z,84.60
2018-09-19T14:18:18.870Z,85.50
2018-09-19T14:20:48.473Z,86.40
2018-09-19T14:23:16.632Z,88.50
2018-09-19T14:25:44.701Z,87.10
2018-09-19T14:28:13.634Z,87.00
2018-09-19T14:30:41.885Z,88.00
2018-09-19T14:33:12.777Z,88.10
2018-09-19T14:35:41.274Z,87.40
2018-09-19T14:38:09.990Z,88.30
2018-09-19T14:40:38.466Z,88.40
2018-09-19T14:43:07.206Z,89.00
2018-09-19T14:45:35.322Z,88.70
2018-09-19T14:48:03.589Z,89.40
2018-09-19T14:50:31.817Z,89.80
2018-09-19T14:53:00.098Z,89.60
2018-09-19T14:55:28.298Z,90.20
2018-09-19T14:57:56.402Z,90.10
2018-09-19T15:00:24.608Z,90.80
2018-09-19T15:02:53.174Z,91.10
2018-09-19T15:05:21.329Z,90.30
2018-09-19T15:07:49.949Z,90.70
2018-09-19T15:10:18.381Z,90.60
2018-09-19T15:12:46.814Z,90.60
2018-09-19T15:15:14.957Z,90.60
2018-09-19T15:17:43.349Z,90.50
2018-09-19T15:20:11.927Z,91.00
2018-09-19T15:22:40.106Z,91.00
2018-09-19T15:25:08.601Z,90.90
2018-09-19T15:27:36.838Z,91.40
2018-09-19T15:30:05.429Z,91.50
2018-09-19T15:32:33.836Z,91.50
2018-09-19T15:35:02.195Z,91.60
2018-09-19T15:37:30.845Z,91.50
2018-09-19T15:40:00.325Z,92.00
2018-09-19T15:42:28.458Z,91.70
2018-09-19T15:44:56.678Z,92.10
2018-09-19T15:47:25.210Z,92.10
2018-09-19T15:49:53.893Z,92.10
2018-09-19T15:52:22.617Z,92.10
2018-09-19T15:54:51.498Z,92.10
2018-09-19T15:57:19.770Z,92.10
2018-09-19T15:59:48.278Z,91.70
2018-09-19T16:02:16.738Z,92.30
2018-09-19T16:04:44.824Z,92.60
2018-09-19T16:07:14.462Z,93.00
2018-09-19T16:09:43.638Z,92.90
2018-09-19T16:12:12.613Z,93.20
2018-09-19T16:14:41.643Z,93.70
2018-09-19T16:17:10.290Z,93.70
2018-09-19T16:19:39.273Z,93.80
2018-09-19T16:22:07.930Z,94.00
2018-09-19T16:24:36.858Z,94.10
2018-09-19T16:27:05.913Z,94.10
2018-09-19T16:29:34.067Z,94.60
2018-09-19T16:32:03.136Z,94.50
2018-09-19T16:34:31.977Z,94.90
2018-09-19T16:37:00.278Z,94.80
2018-09-19T16:39:28.796Z,95.00
2018-09-19T16:41:57.117Z,95.20
2018-09-19T16:44:25.402Z,95.80
2018-09-19T16:46:55.074Z,96.00
2018-09-19T16:49:23.222Z,96.20
2018-09-19T16:51:52.071Z,96.20
2018-09-19T16:54:20.390Z,96.40
2018-09-19T16:56:48.718Z,96.80
2018-09-19T16:59:16.883Z,96.80
2018-09-19T17:01:45.057Z,96.80
2018-09-19T17:04:13.386Z,96.80
2018-09-19T17:06:41.612Z,97.30
2018-09-19T17:09:10.569Z,97.60
2018-09-19T17:11:38.732Z,97.60
2018-09-19T17:14:06.942Z,97.70
2018-09-19T17:16:35.609Z,97.80
2018-09-19T17:19:04.392Z,98.10
2018-09-19T17:21:33.423Z,98.50
2018-09-19T17:24:03.124Z,98.50
2018-09-19T17:26:31.291Z,99.10
2018-09-19T17:29:00.030Z,99.00
2018-09-19T17:31:28.387Z,99.10
2018-09-19T17:33:56.966Z,99.20
2018-09-19T17:36:25.867Z,99.30
2018-09-19T17:38:55.329Z,99.40
2018-09-19T17:41:23.513Z,99.70
2018-09-19T17:43:52.197Z,99.90
2018-09-19T17:46:20.993Z,99.90
2018-09-19T17:48:49.279Z,99.80
2018-09-19T17:51:17.481Z,99.90
2018-09-19T17:53:45.839Z,99.90
2018-09-19T17:56:14.237Z,99.90
2018-09-19T17:58:42.535Z,99.90
2018-09-19T18:01:11.446Z,99.90
2018-09-19T18:03:39.974Z,99.90
2018-09-19T18:06:08.513Z,99.90
2018-09-19T18:08:36.699Z,99.90
2018-09-19T18:11:04.972Z,99.90
2018-09-19T18:13:33.801Z,99.90
2018-09-19T18:16:02.017Z,99.90
2018-09-19T18:18:31.087Z,99.90
2018-09-19T18:20:59.862Z,99.90
2018-09-19T18:23:28.005Z,99.90
2018-09-19T18:31:38.361Z,99.90
2018-09-19T18:34:07.171Z,99.90
2018-09-19T18:36:35.901Z,99.90
2018-09-19T18:39:05.507Z,99.90
2018-09-19T18:41:33.686Z,99.90
2018-09-19T18:44:02.381Z,99.90
2018-09-19T18:46:30.583Z,99.90
2018-09-19T18:48:58.941Z,99.90
2018-09-19T18:51:27.138Z,99.90
2018-09-19T18:53:55.272Z,99.90
2018-09-19T18:56:23.563Z,99.90
2018-09-19T18:58:52.046Z,99.90
2018-09-19T19:01:21.017Z,99.90
2018-09-19T19:03:50.858Z,99.90
2018-09-19T19:06:19.159Z,99.90
2018-09-19T19:08:48.521Z,99.90
2018-09-19T19:11:16.686Z,99.90
2018-09-19T19:13:44.806Z,99.90
2018-09-19T19:16:13.323Z,99.90
2018-09-19T19:18:41.789Z,99.90
2018-09-19T19:21:10.655Z,99.90
2018-09-19T19:23:38.807Z,99.90
2018-09-19T19:26:07.207Z,99.90
2018-09-19T19:28:35.960Z,99.90
2018-09-19T19:31:05.121Z,99.90
2018-09-19T19:33:33.443Z,99.90
2018-09-19T19:36:01.588Z,99.90
2018-09-19T19:38:29.871Z,99.90
2018-09-19T19:40:58.650Z,99.90
2018-09-19T19:43:26.929Z,99.90
2018-09-19T19:45:56.584Z,99.90
2018-09-19T19:48:24.874Z,99.90
2018-09-19T19:50:53.037Z,99.90
2018-09-19T19:53:21.291Z,99.90
2018-09-19T19:55:50.305Z,99.90
2018-09-19T19:58:18.478Z,99.90
2018-09-19T20:00:47.206Z,99.90
2018-09-19T20:03:15.782Z,99.90
2018-09-19T20:05:44.919Z,99.90
2018-09-19T20:08:13.818Z,99.90
2018-09-19T20:10:41.990Z,99.90
2018-09-19T20:13:10.353Z,99.90
2018-09-19T20:15:38.555Z,99.90
2018-09-19T20:18:06.735Z,99.90
2018-09-19T20:20:35.315Z,99.90
2018-09-19T20:23:03.787Z,99.90
2018-09-19T20:25:32.198Z,99.90
2018-09-19T20:28:00.643Z,99.90
2018-09-19T20:30:29.241Z,99.90
2018-09-19T20:32:57.366Z,99.90
2018-09-19T20:35:25.822Z,99.90
2018-09-19T20:37:54.263Z,99.90
2018-09-19T20:40:22.435Z,99.90
2018-09-19T20:42:50.838Z,99.90
2018-09-19T20:45:18.982Z,99.90
2018-09-19T20:47:47.895Z,99.90
2018-09-19T20:50:16.782Z,99.90
2018-09-19T20:52:44.937Z,99.90
2018-09-19T20:55:13.006Z,99.90
2018-09-19T20:57:41.278Z,99.90
2018-09-19T21:00:10.484Z,99.90
2018-09-19T21:02:38.925Z,99.90
2018-09-19T21:05:07.521Z,99.90
2018-09-19T21:07:36.334Z,99.90
2018-09-19T21:10:04.588Z,99.90
2018-09-19T21:12:33.042Z,99.90
2018-09-19T21:15:01.158Z,99.90
2018-09-19T21:17:29.396Z,99.90
2018-09-19T21:19:57.693Z,99.90
2018-09-19T21:22:26.280Z,99.90
2018-09-19T21:24:54.937Z,99.90
2018-09-19T21:27:23.078Z,99.90
2018-09-19T21:29:51.795Z,99.90
2018-09-19T21:32:20.321Z,99.90
2018-09-19T21:34:48.460Z,99.90
2018-09-19T21:37:17.674Z,99.90
2018-09-19T21:39:45.825Z,99.90
2018-09-19T21:42:14.182Z,99.90
2018-09-19T21:44:42.382Z,99.90
2018-09-19T21:47:10.875Z,99.90
2018-09-19T21:49:39.794Z,99.90
2018-09-19T21:52:08.621Z,99.90
2018-09-19T21:54:37.578Z,99.90
2018-09-19T21:57:06.511Z,99.90
2018-09-19T21:59:34.828Z,99.90
2018-09-19T22:02:03.869Z,99.90
2018-09-19T22:04:32.778Z,99.90
2018-09-19T22:07:01.495Z,99.90
2018-09-19T22:09:30.451Z,99.90
2018-09-19T22:12:14.535Z,99.90
2018-09-19T22:14:43.594Z,99.90
2018-09-19T22:17:12.033Z,99.90
2018-09-19T22:19:41.082Z,99.90
2018-09-19T22:22:09.241Z,99.90
2018-09-19T22:24:37.420Z,99.90
2018-09-19T22:27:06.399Z,99.90
2018-09-19T22:29:35.790Z,99.90
2018-09-19T22:32:04.065Z,99.90
2018-09-19T22:34:32.970Z,99.90
2018-09-19T22:37:02.041Z,99.90
2018-09-19T22:39:30.446Z,99.90
2018-09-19T22:41:59.216Z,99.90
2018-09-19T22:44:27.494Z,99.90
2018-09-19T22:46:56.233Z,99.90
2018-09-19T22:49:25.181Z,99.90
2018-09-19T22:51:54.213Z,99.90
2018-09-19T22:54:22.372Z,99.90
2018-09-19T22:56:51.970Z,99.90
2018-09-19T22:59:20.130Z,99.90
2018-09-19T23:01:49.164Z,99.90
2018-09-19T23:04:18.570Z,99.90
2018-09-19T23:06:47.176Z,99.90
2018-09-19T23:09:15.728Z,99.90
2018-09-19T23:11:44.324Z,99.90
2018-09-19T23:14:12.914Z,99.90
2018-09-19T23:16:41.366Z,99.90
2018-09-19T23:19:09.590Z,99.90
2018-09-19T23:21:37.902Z,99.90
2018-09-19T23:24:06.957Z,99.90
2018-09-19T23:26:35.810Z,99.90
2018-09-19T23:29:04.123Z,99.90
2018-09-19T23:31:32.879Z,99.90
2018-09-19T23:34:01.039Z,99.90
2018-09-19T23:36:29.509Z,99.90
2018-09-19T23:38:57.998Z,99.90
2018-09-19T23:41:26.233Z,99.90
2018-09-19T23:43:54.982Z,99.90
2018-09-19T23:46:24.275Z,99.90
2018-09-19T23:48:53.050Z,99.90
2018-09-19T23:51:22.071Z,99.90
2018-09-19T23:53:50.826Z,99.90
2018-09-19T23:56:19.524Z,99.90
2018-09-19T23:58:48.587Z,99.90
